createdAt,value
2022-08-17T00:00:35.042Z,1005.30
2022-08-17T00:01:13.384Z,1005.29
2022-08-17T00:02:24.125Z,1005.24
2022-08-17T00:03:13.600Z,1005.26
2022-08-17T00:04:13.449Z,1005.24
2022-08-17T00:05:13.486Z,1005.27
2022-08-17T00:06:13.528Z,1005.32
2022-08-17T00:07:13.554Z,1005.30
2022-08-17T00:08:13.608Z,1005.29
2022-08-17T00:09:18.216Z,1005.33
2022-08-17T00:10:13.674Z,1005.31
2022-08-17T00:11:14.010Z,1005.27
2022-08-17T00:12:41.203Z,1005.28
2022-08-17T00:13:13.779Z,1005.27
2022-08-17T00:14:13.820Z,1005.28
2022-08-17T00:15:13.867Z,1005.31
2022-08-17T00:16:13.892Z,1005.27
2022-08-17T00:17:13.931Z,1005.27
2022-08-17T00:19:02.169Z,1005.25
2022-08-17T00:19:14.007Z,1005.28
2022-08-17T00:20:14.040Z,1005.24
2022-08-17T00:21:14.080Z,1005.25
2022-08-17T00:22:33.716Z,1005.27
2022-08-17T00:23:14.151Z,1005.24
2022-08-17T00:24:14.188Z,1005.28
2022-08-17T00:25:14.527Z,1005.27
2022-08-17T00:26:14.433Z,1005.28
2022-08-17T00:27:14.298Z,1005.27
2022-08-17T00:28:14.343Z,1005.27
2022-08-17T00:29:19.575Z,1005.27
2022-08-17T00:30:14.412Z,1005.31
2022-08-17T00:31:14.751Z,1005.31
2022-08-17T00:33:17.070Z,1005.27
2022-08-17T00:33:22.801Z,1005.27
2022-08-17T00:34:14.562Z,1005.28
2022-08-17T00:35:14.595Z,1005.24
2022-08-17T00:36:14.635Z,1005.23
2022-08-17T00:37:14.669Z,1005.20
2022-08-17T00:38:14.713Z,1005.21
2022-08-17T00:39:14.747Z,1005.21
2022-08-17T00:40:14.874Z,1005.20
2022-08-17T00:41:14.814Z,1005.19
2022-08-17T00:42:14.857Z,1005.19
2022-08-17T00:43:15.191Z,1005.21
2022-08-17T00:44:14.929Z,1005.19
2022-08-17T00:45:14.982Z,1005.17
2022-08-17T00:46:15.006Z,1005.20
2022-08-17T00:47:15.036Z,1005.17
2022-08-17T00:48:27.256Z,1005.13
2022-08-17T00:49:15.111Z,1005.15
2022-08-17T00:50:15.409Z,1005.12
2022-08-17T00:51:15.197Z,1005.12
2022-08-17T00:52:15.981Z,1005.10
2022-08-17T00:53:15.323Z,1005.08
2022-08-17T00:54:15.374Z,1005.07
2022-08-17T00:55:15.348Z,1005.03
2022-08-17T00:56:15.372Z,1005.05
2022-08-17T00:57:15.658Z,1005.08
2022-08-17T00:58:15.448Z,1005.06
2022-08-17T00:59:15.481Z,1005.08
2022-08-17T01:00:15.522Z,1005.07
2022-08-17T01:01:21.808Z,1005.04
2022-08-17T01:02:15.596Z,1005.03
2022-08-17T01:03:15.639Z,1005.00
2022-08-17T01:04:16.020Z,1005.00
2022-08-17T01:05:15.709Z,1004.98
2022-08-17T01:06:15.745Z,1004.97
2022-08-17T01:07:15.777Z,1004.99
2022-08-17T01:08:15.818Z,1004.98
2022-08-17T01:09:15.854Z,1004.97
2022-08-17T01:11:00.038Z,1004.98
2022-08-17T01:11:15.929Z,1004.96
2022-08-17T01:12:15.970Z,1004.99
2022-08-17T01:13:16.017Z,1005.01
2022-08-17T01:14:16.043Z,1004.99
2022-08-17T01:15:16.077Z,1005.01
2022-08-17T01:16:16.216Z,1005.01
2022-08-17T01:17:16.397Z,1004.98
2022-08-17T01:18:16.185Z,1005.04
2022-08-17T01:19:16.227Z,1005.02
2022-08-17T01:20:16.263Z,1005.08
2022-08-17T01:21:16.297Z,1005.07
2022-08-17T01:22:16.336Z,1005.09
2022-08-17T01:23:20.540Z,1005.12
2022-08-17T01:24:16.711Z,1005.11
2022-08-17T01:25:16.444Z,1005.14
2022-08-17T01:26:16.482Z,1005.17
2022-08-17T01:27:16.523Z,1005.18
2022-08-17T01:28:33.330Z,1005.19
2022-08-17T01:29:16.592Z,1005.21
2022-08-17T01:30:56.861Z,1005.18
2022-08-17T01:31:16.671Z,1005.17
2022-08-17T01:32:16.702Z,1005.18
2022-08-17T01:33:16.756Z,1005.19
2022-08-17T01:34:16.788Z,1005.19
2022-08-17T01:35:16.812Z,1005.18
2022-08-17T01:36:16.852Z,1005.18
2022-08-17T01:37:17.187Z,1005.17
2022-08-17T01:38:16.923Z,1005.19
2022-08-17T01:39:16.959Z,1005.19
2022-08-17T01:40:16.999Z,1005.20
2022-08-17T01:41:17.037Z,1005.18
2022-08-17T01:42:17.077Z,1005.19
2022-08-17T01:43:17.359Z,1005.21
2022-08-17T01:44:17.146Z,1005.22
2022-08-17T01:45:17.179Z,1005.23
2022-08-17T01:46:17.220Z,1005.17
2022-08-17T01:47:17.259Z,1005.16
2022-08-17T01:48:17.297Z,1005.17
2022-08-17T01:49:17.633Z,1005.18
2022-08-17T01:50:17.371Z,1005.16
2022-08-17T01:51:17.409Z,1005.18
2022-08-17T01:52:17.440Z,1005.18
2022-08-17T01:53:17.481Z,1005.17
2022-08-17T01:54:17.517Z,1005.20
2022-08-17T01:55:17.555Z,1005.19
2022-08-17T01:56:17.840Z,1005.21
2022-08-17T01:57:17.628Z,1005.21
2022-08-17T01:58:17.668Z,1005.21
2022-08-17T01:59:17.703Z,1005.20
2022-08-17T02:00:17.736Z,1005.14
2022-08-17T02:02:30.600Z,1005.17
2022-08-17T02:03:17.848Z,1005.21
2022-08-17T02:04:17.989Z,1005.20
2022-08-17T02:05:17.921Z,1005.20
2022-08-17T02:06:27.672Z,1005.22
2022-08-17T02:07:17.994Z,1005.22
2022-08-17T02:09:18.071Z,1005.18
2022-08-17T02:10:19.953Z,1005.18
2022-08-17T02:11:18.144Z,1005.16
2022-08-17T02:12:38.186Z,1005.13
2022-08-17T02:13:18.220Z,1005.19
2022-08-17T02:14:18.259Z,1005.15
2022-08-17T02:15:18.290Z,1005.19
2022-08-17T02:16:18.329Z,1005.19
2022-08-17T02:17:18.669Z,1005.18
2022-08-17T02:18:18.401Z,1005.19
2022-08-17T02:19:18.442Z,1005.18
2022-08-17T02:20:18.474Z,1005.16
2022-08-17T02:21:18.517Z,1005.15
2022-08-17T02:22:18.573Z,1005.16
2022-08-17T02:23:18.587Z,1005.12
2022-08-17T02:24:58.570Z,1005.11
2022-08-17T02:25:18.658Z,1005.10
2022-08-17T02:26:25.712Z,1005.09
2022-08-17T02:27:18.740Z,1005.08
2022-08-17T02:28:18.773Z,1005.10
2022-08-17T02:29:18.807Z,1005.07
2022-08-17T02:30:59.287Z,1005.09
2022-08-17T02:31:18.883Z,1005.14
2022-08-17T02:32:25.483Z,1005.12
2022-08-17T02:33:18.956Z,1005.11
2022-08-17T02:35:20.047Z,1005.10
2022-08-17T02:36:19.066Z,1005.08
2022-08-17T02:37:19.400Z,1005.07
2022-08-17T02:39:19.181Z,1005.05
2022-08-17T02:40:19.212Z,1005.10
2022-08-17T02:43:19.325Z,1005.09
2022-08-17T02:44:39.358Z,1005.08
2022-08-17T02:45:19.399Z,1005.08
2022-08-17T02:46:19.447Z,1005.07
2022-08-17T02:47:19.474Z,1005.03
2022-08-17T02:48:31.051Z,1005.00
2022-08-17T02:50:19.585Z,1005.01
2022-08-17T02:51:19.923Z,1005.02
2022-08-17T02:52:19.665Z,1005.02
2022-08-17T02:53:19.695Z,1005.03
2022-08-17T02:54:41.083Z,1005.00
2022-08-17T02:55:19.766Z,1005.01
2022-08-17T02:56:19.804Z,1005.04
2022-08-17T02:57:20.094Z,1005.03
2022-08-17T02:58:34.726Z,1005.05
2022-08-17T02:59:19.911Z,1005.03
2022-08-17T03:00:19.957Z,1005.00
2022-08-17T03:01:20.011Z,1005.03
2022-08-17T03:02:20.038Z,1005.02
2022-08-17T03:03:20.370Z,1005.03
2022-08-17T03:04:20.098Z,1005.02
2022-08-17T03:05:20.131Z,1005.01
2022-08-17T03:06:20.171Z,1005.00
2022-08-17T03:07:20.211Z,1004.95
2022-08-17T03:08:20.263Z,1004.97
2022-08-17T03:09:20.583Z,1004.98
2022-08-17T03:10:20.333Z,1004.97
2022-08-17T03:11:20.354Z,1004.99
2022-08-17T03:12:20.394Z,1004.99
2022-08-17T03:13:20.435Z,1005.00
2022-08-17T03:14:20.468Z,1005.01
2022-08-17T03:15:20.504Z,1005.04
2022-08-17T03:16:20.842Z,1005.03
2022-08-17T03:17:20.579Z,1005.04
2022-08-17T03:18:25.724Z,1005.04
2022-08-17T03:19:20.649Z,1005.04
2022-08-17T03:20:20.689Z,1004.99
2022-08-17T03:21:20.742Z,1005.00
2022-08-17T03:22:37.215Z,1004.98
2022-08-17T03:23:24.063Z,1004.97
2022-08-17T03:24:20.864Z,1004.95
2022-08-17T03:25:22.665Z,1004.99
2022-08-17T03:26:20.905Z,1004.92
2022-08-17T03:27:20.953Z,1004.94
2022-08-17T03:28:20.981Z,1004.96
2022-08-17T03:29:21.318Z,1004.93
2022-08-17T03:30:21.231Z,1004.94
2022-08-17T03:31:21.091Z,1004.91
2022-08-17T03:32:21.127Z,1004.97
2022-08-17T03:33:21.166Z,1004.91
2022-08-17T03:34:21.203Z,1004.97
2022-08-17T03:35:21.245Z,1004.93
2022-08-17T03:37:21.614Z,1004.96
2022-08-17T03:38:21.396Z,1004.98
2022-08-17T03:39:21.388Z,1004.94
2022-08-17T03:40:55.760Z,1004.95
2022-08-17T03:41:21.460Z,1004.96
2022-08-17T03:42:31.466Z,1004.95
2022-08-17T03:43:21.549Z,1004.97
2022-08-17T03:44:21.873Z,1004.99
2022-08-17T03:45:21.610Z,1004.97
2022-08-17T03:46:28.144Z,1004.98
2022-08-17T03:47:21.680Z,1004.97
2022-08-17T03:48:21.726Z,1004.99
2022-08-17T03:49:21.753Z,1004.98
2022-08-17T03:50:21.789Z,1005.00
2022-08-17T03:51:22.133Z,1005.00
2022-08-17T03:52:21.862Z,1004.98
2022-08-17T03:53:21.900Z,1004.99
2022-08-17T03:54:21.944Z,1004.98
2022-08-17T03:55:21.979Z,1004.97
2022-08-17T03:56:22.010Z,1004.94
2022-08-17T03:57:22.046Z,1004.97
2022-08-17T03:58:22.335Z,1004.92
2022-08-17T03:59:22.340Z,1004.96
2022-08-17T04:00:22.155Z,1004.97
2022-08-17T04:01:22.275Z,1004.99
2022-08-17T04:02:22.239Z,1005.03
2022-08-17T04:03:22.271Z,1005.10
2022-08-17T04:04:27.406Z,1005.09
2022-08-17T04:05:22.597Z,1005.09
2022-08-17T04:06:22.378Z,1005.06
2022-08-17T04:07:22.421Z,1005.05
2022-08-17T04:08:22.453Z,1005.03
2022-08-17T04:09:22.490Z,1005.03
2022-08-17T04:10:26.268Z,1005.07
2022-08-17T04:11:22.562Z,1005.09
2022-08-17T04:12:22.914Z,1005.06
2022-08-17T04:14:22.671Z,1005.08
2022-08-17T04:15:22.708Z,1005.05
2022-08-17T04:16:22.757Z,1005.15
2022-08-17T04:17:22.779Z,1005.13
2022-08-17T04:18:22.819Z,1005.15
2022-08-17T04:19:23.109Z,1005.18
2022-08-17T04:20:22.896Z,1005.14
2022-08-17T04:21:22.927Z,1005.17
2022-08-17T04:22:31.729Z,1005.17
2022-08-17T04:23:23.006Z,1005.19
2022-08-17T04:24:23.125Z,1005.21
2022-08-17T04:25:23.078Z,1005.20
2022-08-17T04:26:52.793Z,1005.25
2022-08-17T04:27:23.166Z,1005.25
2022-08-17T04:28:23.187Z,1005.24
2022-08-17T04:29:23.219Z,1005.27
2022-08-17T04:30:23.265Z,1005.28
2022-08-17T04:31:23.297Z,1005.26
2022-08-17T04:33:03.837Z,1005.26
2022-08-17T04:33:23.371Z,1005.22
2022-08-17T04:34:23.406Z,1005.18
2022-08-17T04:36:23.482Z,1005.16
2022-08-17T04:37:23.527Z,1005.17
2022-08-17T04:38:23.554Z,1005.17
2022-08-17T04:40:25.928Z,1005.18
2022-08-17T04:41:23.672Z,1005.18
2022-08-17T04:42:23.708Z,1005.20
2022-08-17T04:43:23.735Z,1005.21
2022-08-17T04:44:36.791Z,1005.19
2022-08-17T04:45:23.816Z,1005.19
2022-08-17T04:47:23.896Z,1005.24
2022-08-17T04:48:23.929Z,1005.25
2022-08-17T04:49:23.965Z,1005.28
2022-08-17T04:50:23.998Z,1005.30
2022-08-17T04:51:24.335Z,1005.27
2022-08-17T04:52:32.218Z,1005.30
2022-08-17T04:53:24.109Z,1005.28
2022-08-17T04:54:24.140Z,1005.28
2022-08-17T04:56:24.219Z,1005.33
2022-08-17T04:57:24.252Z,1005.36
2022-08-17T04:58:24.589Z,1005.33
2022-08-17T04:59:24.332Z,1005.34
2022-08-17T05:00:24.370Z,1005.35
2022-08-17T05:01:24.764Z,1005.37
2022-08-17T05:02:24.437Z,1005.36
2022-08-17T05:03:24.471Z,1005.36
2022-08-17T05:04:34.506Z,1005.40
2022-08-17T05:05:24.550Z,1005.34
2022-08-17T05:06:24.583Z,1005.35
2022-08-17T05:07:28.336Z,1005.34
2022-08-17T05:08:24.656Z,1005.29
2022-08-17T05:09:24.694Z,1005.27
2022-08-17T05:10:24.770Z,1005.26
2022-08-17T05:11:25.074Z,1005.24
2022-08-17T05:13:24.845Z,1005.22
2022-08-17T05:14:33.550Z,1005.20
2022-08-17T05:15:24.914Z,1005.21
2022-08-17T05:16:24.948Z,1005.23
2022-08-17T05:17:24.994Z,1005.26
2022-08-17T05:18:25.275Z,1005.31
2022-08-17T05:19:25.072Z,1005.33
2022-08-17T05:20:25.098Z,1005.28
2022-08-17T05:21:25.136Z,1005.28
2022-08-17T05:22:25.170Z,1005.24
2022-08-17T05:24:42.849Z,1005.25
2022-08-17T05:25:25.742Z,1005.25
2022-08-17T05:26:27.271Z,1005.23
2022-08-17T05:27:25.358Z,1005.23
2022-08-17T05:28:27.477Z,1005.23
2022-08-17T05:29:35.537Z,1005.22
2022-08-17T05:30:25.463Z,1005.22
2022-08-17T05:31:25.511Z,1005.17
2022-08-17T05:32:38.581Z,1005.19
2022-08-17T05:33:25.582Z,1005.21
2022-08-17T05:34:25.614Z,1005.17
2022-08-17T05:35:25.648Z,1005.23
2022-08-17T05:36:43.063Z,1005.23
2022-08-17T05:37:25.721Z,1005.22
2022-08-17T05:38:25.761Z,1005.25
2022-08-17T05:39:25.824Z,1005.28
2022-08-17T05:40:25.900Z,1005.36
2022-08-17T05:41:25.875Z,1005.42
2022-08-17T05:42:26.157Z,1005.45
2022-08-17T05:43:25.947Z,1005.47
2022-08-17T05:44:25.981Z,1005.53
2022-08-17T05:45:54.397Z,1005.62
2022-08-17T05:46:26.059Z,1005.69
2022-08-17T05:47:26.092Z,1005.74
2022-08-17T05:48:39.201Z,1005.79
2022-08-17T05:49:26.161Z,1005.76
2022-08-17T05:50:27.153Z,1005.79
2022-08-17T05:51:26.234Z,1005.76
2022-08-17T05:52:26.280Z,1005.65
2022-08-17T05:53:26.330Z,1005.75
2022-08-17T05:54:26.354Z,1006.00
2022-08-17T05:55:26.695Z,1006.12
2022-08-17T05:56:30.023Z,1006.14
2022-08-17T05:57:26.453Z,1006.10
2022-08-17T05:58:26.504Z,1006.02
2022-08-17T05:59:26.526Z,1005.93
2022-08-17T06:00:31.105Z,1005.85
2022-08-17T06:01:26.655Z,1005.94
2022-08-17T06:02:26.894Z,1005.96
2022-08-17T06:03:26.674Z,1005.95
2022-08-17T06:04:26.717Z,1005.92
2022-08-17T06:05:26.747Z,1005.84
2022-08-17T06:06:31.467Z,1005.94
2022-08-17T06:07:26.821Z,1005.96
2022-08-17T06:08:26.866Z,1005.94
2022-08-17T06:09:32.986Z,1005.90
2022-08-17T06:10:26.937Z,1005.88
2022-08-17T06:11:26.970Z,1005.86
2022-08-17T06:12:27.009Z,1005.85
2022-08-17T06:13:27.042Z,1005.91
2022-08-17T06:14:27.080Z,1005.91
2022-08-17T06:15:27.118Z,1005.94
2022-08-17T06:16:33.105Z,1005.92
2022-08-17T06:17:27.190Z,1005.92
2022-08-17T06:18:27.228Z,1005.93
2022-08-17T06:19:27.263Z,1005.94
2022-08-17T06:20:27.306Z,1005.94
2022-08-17T06:21:30.509Z,1005.91
2022-08-17T06:22:27.379Z,1005.91
2022-08-17T06:23:27.660Z,1005.87
2022-08-17T06:24:27.467Z,1005.88
2022-08-17T06:25:27.486Z,1005.86
2022-08-17T06:26:39.727Z,1005.85
2022-08-17T06:27:27.565Z,1005.87
2022-08-17T06:28:27.595Z,1005.88
2022-08-17T06:30:28.009Z,1005.91
2022-08-17T06:31:27.704Z,1005.91
2022-08-17T06:32:27.744Z,1005.96
2022-08-17T06:33:27.776Z,1005.98
2022-08-17T06:34:27.829Z,1005.96
2022-08-17T06:35:31.888Z,1005.98
2022-08-17T06:37:28.181Z,1006.02
2022-08-17T06:38:38.270Z,1006.04
2022-08-17T06:39:28.086Z,1006.04
2022-08-17T06:40:28.035Z,1006.07
2022-08-17T06:41:28.077Z,1006.07
2022-08-17T06:42:55.042Z,1006.12
2022-08-17T06:43:28.150Z,1006.11
2022-08-17T06:44:49.882Z,1006.13
2022-08-17T06:45:28.220Z,1006.15
2022-08-17T06:46:28.254Z,1006.15
2022-08-17T06:47:29.275Z,1006.16
2022-08-17T06:48:28.330Z,1006.22
2022-08-17T06:49:28.681Z,1006.24
2022-08-17T06:50:28.406Z,1006.21
2022-08-17T06:51:28.444Z,1006.21
2022-08-17T06:52:55.530Z,1006.21
2022-08-17T06:53:28.529Z,1006.22
2022-08-17T06:54:28.555Z,1006.20
2022-08-17T06:55:28.841Z,1006.21
2022-08-17T06:56:53.248Z,1006.20
2022-08-17T06:57:28.666Z,1006.25
2022-08-17T06:58:28.929Z,1006.21
2022-08-17T06:59:53.189Z,1006.17
2022-08-17T07:00:28.902Z,1006.17
2022-08-17T07:01:28.904Z,1006.10
2022-08-17T07:02:50.906Z,1006.12
2022-08-17T07:03:28.886Z,1006.13
2022-08-17T07:04:28.919Z,1006.10
2022-08-17T07:05:28.959Z,1006.06
2022-08-17T07:06:28.991Z,1006.06
2022-08-17T07:07:29.037Z,1006.05
2022-08-17T07:08:32.022Z,1006.04
2022-08-17T07:09:29.431Z,1006.03
2022-08-17T07:10:29.141Z,1006.03
2022-08-17T07:11:29.211Z,1006.03
2022-08-17T07:12:29.214Z,1006.02
2022-08-17T07:13:29.253Z,1006.00
2022-08-17T07:14:29.287Z,1005.95
2022-08-17T07:15:29.345Z,1005.92
2022-08-17T07:16:29.668Z,1005.87
2022-08-17T07:17:46.803Z,1005.90
2022-08-17T07:18:29.437Z,1005.92
2022-08-17T07:19:29.478Z,1005.91
2022-08-17T07:20:29.517Z,1006.00
2022-08-17T07:21:29.551Z,1006.09
2022-08-17T07:22:29.589Z,1006.12
2022-08-17T07:23:29.626Z,1006.21
2022-08-17T07:24:30.586Z,1006.28
2022-08-17T07:25:29.695Z,1006.29
2022-08-17T07:26:29.734Z,1006.29
2022-08-17T07:27:29.771Z,1006.38
2022-08-17T07:29:29.844Z,1006.38
2022-08-17T07:30:29.887Z,1006.41
2022-08-17T07:31:29.918Z,1006.42
2022-08-17T07:32:30.057Z,1006.44
2022-08-17T07:33:30.085Z,1006.45
2022-08-17T07:34:30.035Z,1006.48
2022-08-17T07:35:37.579Z,1006.50
2022-08-17T07:36:30.409Z,1006.55
2022-08-17T07:37:30.143Z,1006.52
2022-08-17T07:38:30.182Z,1006.58
2022-08-17T07:39:30.256Z,1006.58
2022-08-17T07:40:30.296Z,1006.58
2022-08-17T07:41:53.253Z,1006.55
2022-08-17T07:42:30.333Z,1006.59
2022-08-17T07:43:31.200Z,1006.54
2022-08-17T07:44:30.404Z,1006.57
2022-08-17T07:45:30.438Z,1006.57
2022-08-17T07:46:30.488Z,1006.59
2022-08-17T07:47:30.516Z,1006.62
2022-08-17T07:48:30.609Z,1006.66
2022-08-17T07:49:30.900Z,1006.70
2022-08-17T07:50:30.629Z,1006.69
2022-08-17T07:51:30.664Z,1006.70
2022-08-17T07:52:48.379Z,1006.73
2022-08-17T07:53:30.743Z,1006.69
2022-08-17T07:54:30.778Z,1006.70
2022-08-17T07:55:31.170Z,1006.68
2022-08-17T07:56:34.596Z,1006.67
2022-08-17T07:57:30.886Z,1006.64
2022-08-17T07:58:31.026Z,1006.60
2022-08-17T07:59:33.747Z,1006.60
2022-08-17T08:00:31.951Z,1006.64
2022-08-17T08:01:41.589Z,1006.61
2022-08-17T08:02:33.463Z,1006.67
2022-08-17T08:03:31.113Z,1006.74
2022-08-17T08:05:49.796Z,1006.78
2022-08-17T08:06:31.227Z,1006.80
2022-08-17T08:07:31.267Z,1006.82
2022-08-17T08:08:31.558Z,1006.82
2022-08-17T08:09:31.335Z,1006.82
2022-08-17T08:10:31.428Z,1006.81
2022-08-17T08:12:33.504Z,1006.82
2022-08-17T08:13:31.484Z,1006.83
2022-08-17T08:14:31.522Z,1006.79
2022-08-17T08:15:31.812Z,1006.75
2022-08-17T08:17:31.685Z,1006.76
2022-08-17T08:18:54.689Z,1006.80
2022-08-17T08:19:31.710Z,1006.76
2022-08-17T08:20:40.841Z,1006.80
2022-08-17T08:21:31.782Z,1006.78
2022-08-17T08:22:32.072Z,1006.80
2022-08-17T08:23:31.876Z,1006.83
2022-08-17T08:24:31.899Z,1006.83
2022-08-17T08:25:31.936Z,1006.82
2022-08-17T08:26:31.973Z,1006.84
2022-08-17T08:27:32.006Z,1006.80
2022-08-17T08:28:32.046Z,1006.85
2022-08-17T08:29:32.383Z,1006.81
2022-08-17T08:30:33.176Z,1006.82
2022-08-17T08:31:32.156Z,1006.85
2022-08-17T08:33:32.236Z,1006.83
2022-08-17T08:34:49.700Z,1006.80
2022-08-17T08:35:32.312Z,1006.82
2022-08-17T08:37:14.526Z,1006.80
2022-08-17T08:37:36.729Z,1006.81
2022-08-17T08:38:32.423Z,1006.78
2022-08-17T08:39:32.523Z,1006.77
2022-08-17T08:40:32.496Z,1006.75
2022-08-17T08:41:32.531Z,1006.71
2022-08-17T08:42:32.568Z,1006.72
2022-08-17T08:43:33.009Z,1006.73
2022-08-17T08:45:00.028Z,1006.71
2022-08-17T08:45:32.684Z,1006.75
2022-08-17T08:46:32.716Z,1006.78
2022-08-17T08:47:35.365Z,1006.80
2022-08-17T08:48:56.461Z,1006.86
2022-08-17T08:49:59.572Z,1006.83
2022-08-17T08:50:38.408Z,1006.83
2022-08-17T08:51:32.907Z,1006.86
2022-08-17T08:52:32.941Z,1006.84
2022-08-17T08:53:32.977Z,1006.83
2022-08-17T08:54:33.017Z,1006.85
2022-08-17T08:55:33.054Z,1006.86
2022-08-17T08:56:33.394Z,1006.86
2022-08-17T08:57:34.551Z,1006.88
2022-08-17T08:58:41.426Z,1006.92
2022-08-17T08:59:33.216Z,1006.93
2022-08-17T09:00:33.236Z,1006.92
2022-08-17T09:01:33.305Z,1006.96
2022-08-17T09:03:51.903Z,1006.96
2022-08-17T09:04:50.032Z,1006.97
2022-08-17T09:05:33.428Z,1007.02
2022-08-17T09:06:38.950Z,1007.02
2022-08-17T09:07:33.503Z,1007.00
2022-08-17T09:08:33.545Z,1006.99
2022-08-17T09:09:33.878Z,1006.98
2022-08-17T09:10:33.614Z,1006.99
2022-08-17T09:11:33.649Z,1006.99
2022-08-17T09:12:33.691Z,1006.98
2022-08-17T09:13:33.724Z,1006.97
2022-08-17T09:14:36.591Z,1006.97
2022-08-17T09:15:33.798Z,1007.02
2022-08-17T09:16:33.837Z,1007.03
2022-08-17T09:17:33.875Z,1007.05
2022-08-17T09:19:00.336Z,1007.06
2022-08-17T09:20:34.242Z,1007.05
2022-08-17T09:22:34.061Z,1007.03
2022-08-17T09:23:34.100Z,1007.07
2022-08-17T09:24:34.138Z,1007.05
2022-08-17T09:25:34.169Z,1007.07
2022-08-17T09:26:34.210Z,1007.08
2022-08-17T09:27:34.244Z,1007.10
2022-08-17T09:28:34.284Z,1007.13
2022-08-17T09:29:34.321Z,1007.08
2022-08-17T09:30:34.360Z,1007.03
2022-08-17T09:31:34.393Z,1007.02
2022-08-17T09:32:34.432Z,1006.98
2022-08-17T09:33:34.769Z,1006.95
2022-08-17T09:34:34.510Z,1006.98
2022-08-17T09:35:36.956Z,1006.97
2022-08-17T09:36:34.585Z,1006.96
2022-08-17T09:37:34.620Z,1006.98
2022-08-17T09:38:34.657Z,1007.00
2022-08-17T09:39:34.746Z,1006.98
2022-08-17T09:40:34.982Z,1007.00
2022-08-17T09:41:34.765Z,1007.01
2022-08-17T09:42:34.803Z,1007.04
2022-08-17T09:43:34.852Z,1007.03
2022-08-17T09:44:34.877Z,1007.06
2022-08-17T09:45:34.919Z,1007.11
2022-08-17T09:46:34.952Z,1007.16
2022-08-17T09:47:35.239Z,1007.13
2022-08-17T09:49:35.068Z,1007.23
2022-08-17T09:50:55.271Z,1007.23
2022-08-17T09:51:35.144Z,1007.28
2022-08-17T09:52:35.176Z,1007.26
2022-08-17T09:53:35.521Z,1007.27
2022-08-17T09:55:35.288Z,1007.22
2022-08-17T09:56:35.327Z,1007.23
2022-08-17T09:57:35.371Z,1007.16
2022-08-17T09:59:35.958Z,1007.16
2022-08-17T10:00:35.474Z,1007.14
2022-08-17T10:01:35.642Z,1007.12
2022-08-17T10:02:35.549Z,1007.10
2022-08-17T10:03:35.588Z,1007.12
2022-08-17T10:04:35.621Z,1007.13
2022-08-17T10:05:35.912Z,1007.08
2022-08-17T10:06:35.698Z,1007.09
2022-08-17T10:07:35.737Z,1007.09
2022-08-17T10:08:35.771Z,1007.06
2022-08-17T10:09:35.814Z,1007.10
2022-08-17T10:10:35.843Z,1007.11
2022-08-17T10:11:35.886Z,1007.13
2022-08-17T10:12:35.924Z,1007.16
2022-08-17T10:13:35.982Z,1007.13
2022-08-17T10:14:43.623Z,1007.11
2022-08-17T10:15:36.032Z,1007.10
2022-08-17T10:16:36.070Z,1007.10
2022-08-17T10:17:36.109Z,1007.05
2022-08-17T10:18:36.391Z,1006.99
2022-08-17T10:19:36.186Z,1006.96
2022-08-17T10:20:36.218Z,1006.91
2022-08-17T10:21:36.258Z,1006.86
2022-08-17T10:22:38.205Z,1006.89
2022-08-17T10:23:36.328Z,1006.83
2022-08-17T10:24:36.367Z,1006.85
2022-08-17T10:25:53.951Z,1006.80
2022-08-17T10:26:55.698Z,1006.83
2022-08-17T10:27:36.478Z,1006.73
2022-08-17T10:28:36.517Z,1006.74
2022-08-17T10:29:46.252Z,1006.72
2022-08-17T10:30:36.589Z,1006.66
2022-08-17T10:31:36.634Z,1006.66
2022-08-17T10:32:36.975Z,1006.64
2022-08-17T10:33:36.726Z,1006.67
2022-08-17T10:34:41.041Z,1006.66
2022-08-17T10:35:36.781Z,1006.63
2022-08-17T10:36:36.815Z,1006.67
2022-08-17T10:37:36.861Z,1006.66
2022-08-17T10:38:36.883Z,1006.69
2022-08-17T10:39:52.684Z,1006.69
2022-08-17T10:40:36.959Z,1006.71
2022-08-17T10:41:40.419Z,1006.73
2022-08-17T10:42:37.030Z,1006.76
2022-08-17T10:44:41.037Z,1006.77
2022-08-17T10:45:37.148Z,1006.74
2022-08-17T10:46:37.487Z,1006.78
2022-08-17T10:47:54.757Z,1006.78
2022-08-17T10:48:37.258Z,1006.80
2022-08-17T10:49:37.295Z,1006.82
2022-08-17T10:50:37.328Z,1006.87
2022-08-17T10:51:37.422Z,1006.88
2022-08-17T10:52:37.400Z,1006.94
2022-08-17T10:53:37.741Z,1006.99
2022-08-17T10:54:37.483Z,1007.00
2022-08-17T10:55:37.517Z,1007.05
2022-08-17T10:56:37.552Z,1007.11
2022-08-17T10:57:37.600Z,1007.17
2022-08-17T10:58:37.625Z,1007.20
2022-08-17T10:59:37.667Z,1007.26
2022-08-17T11:01:37.736Z,1007.41
2022-08-17T11:03:37.817Z,1007.45
2022-08-17T11:04:37.846Z,1007.42
2022-08-17T11:05:41.487Z,1007.41
2022-08-17T11:06:38.227Z,1007.39
2022-08-17T11:07:37.959Z,1007.43
2022-08-17T11:08:37.998Z,1007.40
2022-08-17T11:09:38.035Z,1007.44
2022-08-17T11:10:38.069Z,1007.43
2022-08-17T11:11:38.111Z,1007.39
2022-08-17T11:12:38.449Z,1007.31
2022-08-17T11:14:38.220Z,1007.25
2022-08-17T11:15:38.260Z,1007.23
2022-08-17T11:16:38.302Z,1007.30
2022-08-17T11:17:38.335Z,1007.24
2022-08-17T11:18:38.626Z,1007.24
2022-08-17T11:19:38.408Z,1007.25
2022-08-17T11:20:38.448Z,1007.23
2022-08-17T11:21:38.483Z,1007.24
2022-08-17T11:22:38.539Z,1007.29
2022-08-17T11:23:38.555Z,1007.29
2022-08-17T11:24:38.696Z,1007.26
2022-08-17T11:25:38.934Z,1007.29
2022-08-17T11:26:39.000Z,1007.25
2022-08-17T11:27:38.705Z,1007.23
2022-08-17T11:28:38.749Z,1007.29
2022-08-17T11:29:38.781Z,1007.29
2022-08-17T11:30:38.863Z,1007.30
2022-08-17T11:31:39.858Z,1007.29
2022-08-17T11:32:47.154Z,1007.31
2022-08-17T11:33:38.934Z,1007.29
2022-08-17T11:34:38.975Z,1007.35
2022-08-17T11:35:39.006Z,1007.37
2022-08-17T11:36:39.048Z,1007.37
2022-08-17T11:37:39.085Z,1007.34
2022-08-17T11:38:39.129Z,1007.30
2022-08-17T11:39:39.535Z,1007.31
2022-08-17T11:40:39.200Z,1007.33
2022-08-17T11:41:39.237Z,1007.38
2022-08-17T11:42:39.275Z,1007.35
2022-08-17T11:43:42.716Z,1007.38
2022-08-17T11:44:39.356Z,1007.33
2022-08-17T11:45:39.385Z,1007.31
2022-08-17T11:46:39.735Z,1007.30
2022-08-17T11:47:39.461Z,1007.32
2022-08-17T11:48:39.506Z,1007.28
2022-08-17T11:49:39.536Z,1007.29
2022-08-17T11:50:39.575Z,1007.28
2022-08-17T11:51:39.610Z,1007.25
2022-08-17T11:52:39.650Z,1007.33
2022-08-17T11:53:39.991Z,1007.32
2022-08-17T11:54:39.730Z,1007.38
2022-08-17T11:55:44.737Z,1007.40
2022-08-17T11:56:39.804Z,1007.44
2022-08-17T11:57:39.838Z,1007.44
2022-08-17T11:58:39.879Z,1007.48
2022-08-17T11:59:39.915Z,1007.48
2022-08-17T12:00:40.306Z,1007.50
2022-08-17T12:01:39.990Z,1007.50
2022-08-17T12:02:43.336Z,1007.47
2022-08-17T12:03:40.063Z,1007.46
2022-08-17T12:04:40.139Z,1007.47
2022-08-17T12:05:40.142Z,1007.42
2022-08-17T12:06:40.184Z,1007.48
2022-08-17T12:07:40.470Z,1007.47
2022-08-17T12:08:40.260Z,1007.49
2022-08-17T12:09:40.294Z,1007.54
2022-08-17T12:10:40.343Z,1007.51
2022-08-17T12:11:55.601Z,1007.51
2022-08-17T12:12:40.412Z,1007.46
2022-08-17T12:13:40.463Z,1007.55
2022-08-17T12:15:40.825Z,1007.43
2022-08-17T12:16:40.563Z,1007.45
2022-08-17T12:17:42.827Z,1007.44
2022-08-17T12:18:40.640Z,1007.46
2022-08-17T12:19:40.682Z,1007.45
2022-08-17T12:20:40.817Z,1007.50
2022-08-17T12:21:40.754Z,1007.45
2022-08-17T12:23:41.080Z,1007.48
2022-08-17T12:24:40.872Z,1007.47
2022-08-17T12:25:40.906Z,1007.46
2022-08-17T12:26:40.945Z,1007.46
2022-08-17T12:28:04.140Z,1007.46
2022-08-17T12:28:41.022Z,1007.46
2022-08-17T12:31:41.437Z,1007.47
2022-08-17T12:32:41.174Z,1007.47
2022-08-17T12:33:41.211Z,1007.45
2022-08-17T12:34:41.267Z,1007.46
2022-08-17T12:35:41.294Z,1007.47
2022-08-17T12:36:41.335Z,1007.52
2022-08-17T12:37:41.375Z,1007.49
2022-08-17T12:38:41.658Z,1007.50
2022-08-17T12:39:41.485Z,1007.54
2022-08-17T12:40:41.485Z,1007.50
2022-08-17T12:41:41.523Z,1007.52